Time;durP1;ratioP1;P1;durP2;ratioP2;P2;SDS_P1;SDS_P2;PMS_P1;PMS_P2;Temp;Humidity;BMP_temperature;BMP_pressure;BME280_temperature;BME280_humidity;BME280_pressure;Samples;Min_cycle;Max_cycle;Signal;HPM_P1;HPM_P2
2022/01/31 00:00:15;;;;;;;22.27;7.00;;;;;;;6.54;60.91;101528.66;5100991;28;20031;-71
2022/01/31 00:02:43;;;;;;;19.42;7.32;;;;;;;6.56;59.98;101512.78;5096245;28;20031;-71
2022/01/31 00:05:09;;;;;;;23.83;7.28;;;;;;;6.52;60.49;101483.88;5101307;28;20020;-71
2022/01/31 00:07:35;;;;;;;17.35;7.05;;;;;;;6.57;60.88;101469.50;5106907;28;20024;-71
2022/01/31 00:10:06;;;;;;;20.38;7.07;;;;;;;6.56;60.40;101443.81;5098696;28;20421;-71
2022/01/31 00:12:36;;;;;;;20.83;7.13;;;;;;;6.51;60.68;101435.31;5097224;28;20381;-71
2022/01/31 00:15:04;;;;;;;18.48;7.10;;;;;;;6.51;61.16;101426.19;5102262;28;20035;-71
2022/01/31 00:17:29;;;;;;;24.95;7.05;;;;;;;6.47;60.66;101431.28;5098296;28;20078;-71
2022/01/31 00:19:54;;;;;;;21.30;7.22;;;;;;;6.50;61.00;101430.03;5099775;28;20035;-71
2022/01/31 00:22:20;;;;;;;21.23;6.10;;;;;;;6.42;60.79;101413.69;5108193;28;20024;-71
2022/01/31 00:24:45;;;;;;;18.55;6.35;;;;;;;6.42;61.04;101406.25;5093830;28;20051;-71
2022/01/31 00:27:10;;;;;;;18.75;6.70;;;;;;;6.37;61.99;101400.53;5114291;28;20081;-71
2022/01/31 00:29:36;;;;;;;20.48;6.38;;;;;;;6.39;62.01;101384.63;5106218;28;20039;-71
2022/01/31 00:32:02;;;;;;;18.65;6.90;;;;;;;6.42;61.83;101381.44;5097326;28;20055;-72
2022/01/31 00:34:27;;;;;;;18.15;6.60;;;;;;;6.38;62.20;101375.50;5105501;28;20032;-71
2022/01/31 00:36:54;;;;;;;20.27;6.63;;;;;;;6.34;62.59;101357.69;5094044;28;20108;-71
2022/01/31 00:39:19;;;;;;;20.98;7.18;;;;;;;6.38;62.55;101339.66;5093508;28;20032;-71
2022/01/31 00:41:45;;;;;;;23.38;6.97;;;;;;;6.33;63.13;101349.66;5098510;28;20031;-72
2022/01/31 00:44:19;;;;;;;20.58;6.15;;;;;;;6.30;63.56;101320.59;5106049;28;20026;-71
2022/01/31 00:46:52;;;;;;;20.88;6.63;;;;;;;6.19;64.76;101301.09;5107041;28;20550;-71
2022/01/31 00:50:19;;;;;;;19.58;6.65;;;;;;;6.23;65.24;101291.31;5112306;28;20559;-71
2022/01/31 00:52:12;;;;;;;17.25;6.97;;;;;;;6.24;65.53;101293.84;5086758;28;20055;-71
2022/01/31 00:54:38;;;;;;;19.88;6.55;;;;;;;6.28;65.59;101277.75;5110105;28;20031;-72
2022/01/31 00:57:03;;;;;;;19.88;6.30;;;;;;;6.30;65.93;101264.59;5113641;28;20045;-71
2022/01/31 00:59:28;;;;;;;18.30;6.22;;;;;;;6.25;66.74;101256.09;5101466;28;20372;-71
2022/01/31 01:01:54;;;;;;;21.08;6.30;;;;;;;6.26;66.86;101246.81;5108699;28;20563;-71
2022/01/31 01:04:19;;;;;;;21.98;6.80;;;;;;;6.29;66.79;101227.09;5111588;28;20042;-71
2022/01/31 01:06:44;;;;;;;23.75;6.63;;;;;;;6.26;66.88;101225.59;5092683;28;20024;-71
2022/01/31 01:09:11;;;;;;;21.20;6.57;;;;;;;6.31;67.60;101224.94;5108339;28;20027;-71
2022/01/31 01:11:36;;;;;;;21.73;6.95;;;;;;;6.31;67.46;101219.44;5099831;28;20386;-71
2022/01/31 01:14:02;;;;;;;22.20;5.95;;;;;;;6.29;67.96;101199.50;5107255;28;20032;-71
2022/01/31 01:16:27;;;;;;;14.30;5.93;;;;;;;6.33;68.44;101195.25;5109232;28;20027;-71
2022/01/31 01:18:52;;;;;;;19.08;5.97;;;;;;;6.33;68.24;101187.00;5095463;28;20031;-71
2022/01/31 01:21:17;;;;;;;22.17;6.07;;;;;;;6.34;68.64;101175.72;5098800;28;20035;-71
2022/01/31 01:23:43;;;;;;;19.92;5.82;;;;;;;6.30;69.08;101166.22;5092947;28;20032;-71
2022/01/31 01:26:08;;;;;;;21.92;5.75;;;;;;;6.30;69.37;101154.34;5100149;28;20040;-71
2022/01/31 01:28:34;;;;;;;17.23;5.93;;;;;;;6.30;69.61;101143.31;5093428;28;20134;-71
2022/01/31 01:30:59;;;;;;;17.48;6.13;;;;;;;6.30;69.91;101132.28;5105460;28;20027;-71
2022/01/31 01:33:25;;;;;;;21.20;6.10;;;;;;;6.27;70.35;101125.28;5109041;28;20032;-71
2022/01/31 01:35:53;;;;;;;20.48;6.40;;;;;;;6.30;70.22;101126.78;5092095;28;20016;-71
2022/01/31 01:38:19;;;;;;;18.05;6.00;;;;;;;6.32;70.36;101116.34;5104486;28;20062;-71
2022/01/31 01:40:47;;;;;;;17.00;5.75;;;;;;;6.28;70.93;101106.81;5109481;28;20032;-71
2022/01/31 01:43:14;;;;;;;18.80;6.55;;;;;;;6.25;70.90;101085.22;5111271;28;20032;-71
2022/01/31 01:45:40;;;;;;;22.38;6.78;;;;;;;6.26;71.13;101092.44;5105337;28;20035;-72
2022/01/31 01:48:07;;;;;;;18.80;6.30;;;;;;;6.26;71.13;101089.69;5097477;28;20491;-72
2022/01/31 01:50:37;;;;;;;21.05;5.95;;;;;;;6.26;71.48;101071.22;5098993;28;20479;-72
2022/01/31 01:53:03;;;;;;;20.50;5.78;;;;;;;6.30;71.37;101063.38;5110212;28;20080;-71
2022/01/31 01:55:29;;;;;;;16.65;6.25;;;;;;;6.31;71.07;101048.50;5104265;28;20073;-71
2022/01/31 01:57:56;;;;;;;15.57;5.45;;;;;;;6.30;71.32;101025.63;5093991;28;20491;-71
2022/01/31 02:00:26;;;;;;;18.60;6.15;;;;;;;6.30;72.00;101024.78;5093214;28;20027;-71
2022/01/31 02:02:53;;;;;;;22.15;5.85;;;;;;;6.17;72.41;101022.06;5107771;28;20028;-71
2022/01/31 02:05:19;;;;;;;14.43;5.20;;;;;;;6.15;72.18;101006.59;5107368;28;20020;-72
2022/01/31 02:07:45;;;;;;;16.13;5.15;;;;;;;6.20;72.25;101002.34;5104516;28;20028;-71
2022/01/31 02:10:11;;;;;;;13.10;5.28;;;;;;;6.26;72.03;100993.19;5101858;28;20040;-72
2022/01/31 02:12:40;;;;;;;11.88;5.10;;;;;;;6.22;72.58;100981.78;5101190;28;20068;-72
2022/01/31 02:15:08;;;;;;;14.70;5.20;;;;;;;6.30;72.48;100994.44;5094766;28;20032;-72
2022/01/31 02:17:33;;;;;;;15.82;4.75;;;;;;;6.28;72.61;100980.03;5091341;28;20032;-71
2022/01/31 02:19:58;;;;;;;16.13;4.88;;;;;;;6.32;72.43;100976.59;5098042;28;20030;-72
2022/01/31 02:22:23;;;;;;;16.35;5.32;;;;;;;6.35;73.02;100965.13;5107796;28;20085;-71
2022/01/31 02:24:49;;;;;;;14.85;4.88;;;;;;;6.31;73.13;100963.06;5110335;28;20395;-71
2022/01/31 02:27:14;;;;;;;14.07;5.07;;;;;;;6.29;73.41;100966.03;5097094;28;20075;-71
2022/01/31 02:29:39;;;;;;;10.73;5.10;;;;;;;6.20;74.04;100972.88;5101569;28;20025;-72
2022/01/31 02:32:05;;;;;;;13.70;4.82;;;;;;;6.16;74.45;100977.13;5091106;28;20040;-72
2022/01/31 02:34:30;;;;;;;13.20;5.00;;;;;;;6.20;74.17;100977.53;5096536;28;20106;-71
2022/01/31 02:36:55;;;;;;;11.98;4.50;;;;;;;6.24;74.63;100968.59;5096164;28;20028;-71
2022/01/31 02:39:21;;;;;;;12.45;4.63;;;;;;;6.29;74.07;100979.81;5091618;28;20085;-71
2022/01/31 02:41:48;;;;;;;12.00;5.28;;;;;;;6.27;74.39;100964.56;5091168;28;20040;-72
2022/01/31 02:44:15;;;;;;;11.18;5.07;;;;;;;6.25;74.91;100939.13;5098733;28;20031;-72
2022/01/31 02:46:50;;;;;;;15.35;5.47;;;;;;;6.27;74.92;100928.72;5109552;28;20038;-71
2022/01/31 02:49:19;;;;;;;9.90;5.07;;;;;;;6.31;74.47;100928.06;5097325;28;20032;-71
2022/01/31 02:51:49;;;;;;;11.10;5.03;;;;;;;6.33;74.75;100936.13;5098369;28;20031;-71
2022/01/31 02:54:14;;;;;;;8.98;4.75;;;;;;;6.33;75.04;100933.38;5104362;28;20036;-71
2022/01/31 02:56:40;;;;;;;11.18;4.90;;;;;;;6.35;74.73;100912.75;5098265;28;20378;-71
2022/01/31 02:59:06;;;;;;;10.05;5.00;;;;;;;6.33;75.83;100916.81;5110198;28;20589;-72
2022/01/31 03:01:34;;;;;;;10.50;5.32;;;;;;;6.31;75.84;100927.22;5110686;28;20039;-72
2022/01/31 03:03:59;;;;;;;13.30;4.80;;;;;;;6.34;75.90;100913.84;5097646;28;20016;-72
2022/01/31 03:06:25;;;;;;;11.55;4.88;;;;;;;6.34;75.95;100913.00;5091244;28;20113;-71
2022/01/31 03:08:50;;;;;;;9.32;4.85;;;;;;;6.39;75.81;100919.50;5103989;28;20020;-71
2022/01/31 03:11:15;;;;;;;11.63;4.70;;;;;;;6.43;76.35;100919.06;5104861;28;20397;-72
2022/01/31 03:13:40;;;;;;;14.75;5.00;;;;;;;6.45;76.14;100919.69;5094147;28;20077;-72
2022/01/31 03:16:06;;;;;;;11.98;4.70;;;;;;;6.42;76.51;100915.47;5095434;28;20043;-71
2022/01/31 03:18:31;;;;;;;12.52;4.65;;;;;;;6.39;76.83;100914.00;5102906;28;20024;-72
2022/01/31 03:20:57;;;;;;;10.98;4.28;;;;;;;6.42;76.80;100896.16;5097157;28;20471;-72
2022/01/31 03:23:22;;;;;;;13.77;4.20;;;;;;;6.44;76.11;100884.91;5100355;28;20028;-71
2022/01/31 03:25:47;;;;;;;18.63;5.15;;;;;;;6.48;76.57;100870.44;5090802;28;20020;-71
2022/01/31 03:28:13;;;;;;;19.25;5.18;;;;;;;6.46;76.37;100883.63;5100817;28;20028;-71
2022/01/31 03:30:38;;;;;;;12.73;4.25;;;;;;;6.51;76.24;100886.53;5091356;28;20422;-71
2022/01/31 03:33:03;;;;;;;15.05;4.78;;;;;;;6.51;76.53;100882.94;5090814;28;20066;-72
2022/01/31 03:35:28;;;;;;;12.20;4.53;;;;;;;6.51;76.19;100878.25;5109665;28;20030;-71
2022/01/31 03:37:54;;;;;;;22.50;4.68;;;;;;;6.52;76.34;100877.19;5107765;28;20058;-72
2022/01/31 03:40:19;;;;;;;16.67;4.10;;;;;;;6.54;76.13;100875.06;5103655;28;20491;-72
2022/01/31 03:42:45;;;;;;;15.73;3.78;;;;;;;6.57;76.38;100858.06;5106043;28;20551;-72
2022/01/31 03:45:11;;;;;;;16.25;3.90;;;;;;;6.62;75.79;100860.13;5096508;28;20036;-71
2022/01/31 03:47:43;;;;;;;15.25;3.85;;;;;;;6.64;76.08;100861.63;5109384;28;20024;-71
2022/01/31 03:50:09;;;;;;;;;;;;;;;6.78;74.03;100844.91;5099560;28;20040;-72
2022/01/31 03:52:34;;;;;;;15.27;3.50;;;;;;;6.63;75.24;100850.78;5104495;28;19924;-71
2022/01/31 03:54:59;;;;;;;16.05;3.60;;;;;;;6.62;75.47;100855.47;5106605;28;20085;-71
2022/01/31 03:57:24;;;;;;;17.85;3.78;;;;;;;6.66;75.10;100861.38;5099007;28;20068;-71
2022/01/31 03:59:50;;;;;;;15.45;3.58;;;;;;;6.70;74.82;100853.50;5109120;28;20028;-72
2022/01/31 04:02:15;;;;;;;19.13;3.63;;;;;;;6.69;75.19;100862.84;5095803;28;20043;-71
2022/01/31 04:04:40;;;;;;;16.25;3.65;;;;;;;6.64;74.91;100869.88;5103982;28;20420;-71
2022/01/31 04:07:06;;;;;;;16.13;3.78;;;;;;;6.64;74.11;100869.00;5114163;28;20024;-71
2022/01/31 04:09:31;;;;;;;18.92;3.47;;;;;;;6.62;74.52;100862.91;5110303;28;20466;-71
2022/01/31 04:11:56;;;;;;;17.52;3.88;;;;;;;6.61;74.57;100866.72;5112619;28;20024;-72
2022/01/31 04:14:25;;;;;;;20.25;3.80;;;;;;;6.64;74.25;100853.34;5103890;28;20032;-72
2022/01/31 04:16:53;;;;;;;20.05;3.83;;;;;;;6.60;74.33;100852.09;5102802;28;20027;-71
2022/01/31 04:19:18;;;;;;;19.98;3.58;;;;;;;6.64;73.74;100852.47;5111300;28;20047;-71
2022/01/31 04:21:43;;;;;;;17.63;3.65;;;;;;;6.61;73.63;100844.66;5110457;28;20023;-71
2022/01/31 04:24:09;;;;;;;21.35;3.78;;;;;;;6.64;73.58;100834.03;5110719;28;20529;-72
2022/01/31 04:26:34;;;;;;;15.18;3.47;;;;;;;6.67;73.55;100835.47;5097221;28;20024;-72
2022/01/31 04:29:09;;;;;;;15.52;3.83;;;;;;;6.60;72.82;100834.69;5093933;28;20475;-72
2022/01/31 04:31:39;;;;;;;17.10;3.00;;;;;;;6.61;72.90;100839.16;5111324;28;20046;-72
2022/01/31 04:34:04;;;;;;;13.55;2.88;;;;;;;6.68;72.59;100844.59;5110787;28;20130;-72
2022/01/31 04:36:30;;;;;;;23.38;3.70;;;;;;;6.64;72.26;100842.31;5113026;28;20526;-71
2022/01/31 04:38:55;;;;;;;17.25;3.00;;;;;;;6.68;72.41;100837.19;5113229;28;20379;-72
2022/01/31 04:41:21;;;;;;;17.50;3.72;;;;;;;6.66;71.29;100838.47;5108530;28;20119;-71
2022/01/31 04:43:48;;;;;;;18.33;3.50;;;;;;;6.66;71.23;100828.28;5100492;28;20058;-71
2022/01/31 04:46:13;;;;;;;20.77;3.72;;;;;;;6.60;71.47;100840.19;5100886;28;20061;-71
2022/01/31 04:48:39;;;;;;;19.10;3.10;;;;;;;6.57;70.78;100822.22;5106065;28;20431;-72
2022/01/31 04:51:04;;;;;;;14.18;2.67;;;;;;;6.61;70.49;100831.72;5112302;28;21171;-71
2022/01/31 04:53:30;;;;;;;14.88;3.42;;;;;;;6.65;71.03;100832.13;5109780;28;20035;-72
2022/01/31 04:55:55;;;;;;;13.95;2.45;;;;;;;6.59;69.98;100839.38;5108559;28;20070;-71
2022/01/31 04:58:22;;;;;;;20.13;3.55;;;;;;;6.65;70.81;100837.63;5105198;28;20051;-72
2022/01/31 05:00:48;;;;;;;15.05;3.17;;;;;;;6.65;69.70;100832.13;5104789;28;20107;-72
2022/01/31 05:03:17;;;;;;;12.95;2.72;;;;;;;6.69;69.41;100824.22;5107195;28;20893;-71
2022/01/31 05:05:43;;;;;;;15.30;2.78;;;;;;;6.64;69.89;100827.66;5107942;28;20034;-72
2022/01/31 05:08:09;;;;;;;17.40;2.92;;;;;;;6.64;69.35;100835.91;5103303;28;20031;-71
2022/01/31 05:10:35;;;;;;;13.88;2.95;;;;;;;6.68;69.65;100831.66;5106736;28;20080;-72
2022/01/31 05:13:02;;;;;;;16.90;2.70;;;;;;;6.61;69.14;100817.94;5100686;28;20032;-72
2022/01/31 05:15:27;;;;;;;12.55;3.20;;;;;;;6.63;68.17;100817.69;5111542;28;20076;-71
2022/01/31 05:17:53;;;;;;;14.98;3.00;;;;;;;6.64;69.32;100805.59;5109824;28;20020;-72
2022/01/31 05:20:18;;;;;;;13.15;3.20;;;;;;;6.71;68.47;100805.53;5111043;28;20391;-72
2022/01/31 05:22:43;;;;;;;18.85;3.55;;;;;;;6.70;68.47;100806.59;5104310;28;20475;-71
2022/01/31 05:25:09;;;;;;;17.15;2.88;;;;;;;6.68;68.23;100803.22;5108388;28;20043;-71
2022/01/31 05:27:34;;;;;;;18.98;3.22;;;;;;;6.64;68.01;100800.06;5099805;28;20503;-72
2022/01/31 05:29:59;;;;;;;19.45;3.25;;;;;;;6.67;67.69;100796.03;5108420;28;20432;-72
2022/01/31 05:32:24;;;;;;;13.00;2.78;;;;;;;6.71;67.84;100797.25;5106105;28;20036;-71
2022/01/31 05:34:50;;;;;;;17.65;3.33;;;;;;;6.66;67.52;100788.81;5103554;28;20028;-71
2022/01/31 05:37:15;;;;;;;16.30;3.22;;;;;;;6.68;67.90;100784.78;5094357;28;20036;-71
2022/01/31 05:39:42;;;;;;;15.52;2.70;;;;;;;6.68;68.08;100775.63;5098644;28;20072;-71
2022/01/31 05:42:08;;;;;;;18.35;3.17;;;;;;;6.61;68.76;100770.22;5094067;28;20085;-72
2022/01/31 05:44:33;;;;;;;18.17;3.42;;;;;;;6.65;68.57;100760.41;5099928;28;20055;-72
2022/01/31 05:47:00;;;;;;;21.80;3.60;;;;;;;6.67;68.94;100768.44;5097414;28;20020;-71
2022/01/31 05:49:26;;;;;;;15.50;3.33;;;;;;;6.60;68.76;100761.09;5108835;28;20367;-71
2022/01/31 05:52:04;;;;;;;18.45;3.13;;;;;;;6.56;68.93;100762.63;5111375;28;20035;-72
2022/01/31 05:54:30;;;;;;;14.35;3.42;;;;;;;6.54;69.00;100758.41;5106781;28;20032;-71
2022/01/31 05:56:56;;;;;;;17.95;2.88;;;;;;;6.53;68.91;100763.09;5094800;28;20854;-71
2022/01/31 05:59:21;;;;;;;24.02;4.22;;;;;;;6.55;70.13;100769.19;5111925;28;20051;-71
2022/01/31 06:01:47;;;;;;;14.55;2.78;;;;;;;6.56;69.76;100778.31;5098498;28;20024;-71
2022/01/31 06:04:12;;;;;;;11.65;2.70;;;;;;;6.58;69.29;100793.56;5093730;28;20028;-72
2022/01/31 06:06:39;;;;;;;13.25;2.85;;;;;;;6.54;70.13;100810.78;5105730;28;20050;-72
2022/01/31 06:09:05;;;;;;;15.57;2.88;;;;;;;6.45;70.81;100801.16;5096945;28;20032;-72
2022/01/31 06:11:33;;;;;;;14.80;2.72;;;;;;;6.36;71.90;100800.56;5098510;28;20033;-71
2022/01/31 06:14:00;;;;;;;13.15;3.00;;;;;;;6.31;71.99;100808.69;5097366;28;20085;-72
2022/01/31 06:16:26;;;;;;;14.75;3.30;;;;;;;6.19;71.97;100800.31;5092521;28;20028;-72
2022/01/31 06:18:51;;;;;;;15.65;3.33;;;;;;;6.05;72.06;100799.59;5108466;28;20027;-72
2022/01/31 06:21:17;;;;;;;15.40;3.08;;;;;;;6.09;72.86;100803.59;5097220;28;20097;-72
2022/01/31 06:23:42;;;;;;;19.08;3.15;;;;;;;6.04;73.01;100803.41;5110585;28;20049;-72
2022/01/31 06:26:08;;;;;;;15.25;3.30;;;;;;;6.12;73.35;100802.28;5102960;28;20023;-72
2022/01/31 06:28:33;;;;;;;15.15;3.22;;;;;;;6.11;72.98;100793.16;5098963;28;20024;-72
2022/01/31 06:30:58;;;;;;;16.58;3.15;;;;;;;6.19;72.52;100794.78;5108159;27;20027;-72
2022/01/31 06:33:24;;;;;;;13.10;2.90;;;;;;;6.21;71.62;100794.56;5104939;28;20374;-72
2022/01/31 06:35:49;;;;;;;14.10;3.65;;;;;;;6.16;71.62;100789.72;5103767;27;20068;-71
2022/01/31 06:38:14;;;;;;;19.70;3.50;;;;;;;6.25;71.49;100788.38;5099273;28;20038;-72
2022/01/31 06:40:40;;;;;;;15.43;3.20;;;;;;;6.25;71.43;100791.16;5107077;28;20031;-72
2022/01/31 06:43:05;;;;;;;15.77;3.10;;;;;;;6.30;70.98;100796.81;5109470;28;20087;-72
2022/01/31 06:45:31;;;;;;;14.40;2.63;;;;;;;6.33;71.29;100792.78;5099582;28;20118;-72
2022/01/31 06:47:56;;;;;;;16.63;3.20;;;;;;;6.26;70.61;100798.34;5098076;28;20106;-72
2022/01/31 06:50:23;;;;;;;14.80;3.00;;;;;;;6.25;70.58;100793.03;5099543;28;20023;-72
2022/01/31 06:52:51;;;;;;;21.60;3.63;;;;;;;6.17;71.04;100790.56;5099335;28;20038;-71
2022/01/31 06:55:19;;;;;;;18.38;3.63;;;;;;;6.19;70.91;100800.31;5104873;28;20092;-72
2022/01/31 06:57:45;;;;;;;14.15;3.38;;;;;;;6.09;71.03;100789.81;5103321;28;20067;-71
2022/01/31 07:00:12;;;;;;;12.82;3.38;;;;;;;6.18;70.83;100787.59;5102332;28;20074;-71
2022/01/31 07:02:38;;;;;;;18.65;4.30;;;;;;;6.19;70.86;100802.22;5113994;27;20031;-72
2022/01/31 07:05:04;;;;;;;17.75;3.47;;;;;;;6.15;71.25;100797.16;5111283;28;20023;-71
2022/01/31 07:07:30;;;;;;;15.73;3.67;;;;;;;6.12;71.23;100800.34;5105880;27;20035;-72
2022/01/31 07:09:55;;;;;;;18.02;3.28;;;;;;;6.18;71.05;100795.88;5109627;28;20027;-72
2022/01/31 07:12:24;;;;;;;16.73;3.38;;;;;;;6.22;71.00;100793.50;5093668;28;20547;-71
2022/01/31 07:14:49;;;;;;;19.33;3.22;;;;;;;6.25;71.12;100795.78;5100465;27;20035;-72
2022/01/31 07:17:15;;;;;;;23.45;3.95;;;;;;;6.34;71.17;100788.94;5119996;27;20424;-71
2022/01/31 07:19:42;;;;;;;21.73;3.40;;;;;;;6.26;71.09;100781.81;5102377;28;20492;-72
2022/01/31 07:22:11;;;;;;;18.02;3.85;;;;;;;6.28;71.02;100781.56;5097352;27;20035;-71
2022/01/31 07:27:03;;;;;;;18.05;3.38;;;;;;;6.21;70.65;100776.13;5109157;28;20091;-66
2022/01/31 07:29:29;;;;;;;17.40;4.03;;;;;;;6.26;71.28;100778.22;5107044;28;20510;-62
2022/01/31 07:31:56;;;;;;;16.33;3.35;;;;;;;6.26;70.82;100767.19;5101847;28;20028;-66
2022/01/31 07:34:22;;;;;;;21.25;3.83;;;;;;;6.20;71.08;100773.59;5113953;28;20034;-67
2022/01/31 07:36:48;;;;;;;20.10;3.47;;;;;;;6.19;71.27;100777.41;5101272;28;20024;-69
2022/01/31 07:39:13;;;;;;;17.15;3.35;;;;;;;6.25;70.68;100787.53;5105131;28;20034;-68
2022/01/31 07:41:39;;;;;;;20.77;4.63;;;;;;;6.22;71.22;100804.53;5098360;28;20032;-67
2022/01/31 07:44:04;;;;;;;20.80;3.67;;;;;;;6.22;71.65;100810.03;5100224;28;20027;-67
2022/01/31 07:46:30;;;;;;;21.65;3.65;;;;;;;6.25;70.82;100815.09;5090193;28;20028;-67
2022/01/31 07:48:55;;;;;;;19.73;3.60;;;;;;;6.17;70.13;100805.22;5090556;28;20042;-67
2022/01/31 07:51:22;;;;;;;21.90;3.53;;;;;;;6.05;71.88;100805.09;5102822;28;20152;-67
2022/01/31 07:53:47;;;;;;;22.00;4.13;;;;;;;6.08;71.72;100804.63;5097709;28;20054;-68
2022/01/31 07:56:15;;;;;;;25.63;3.97;;;;;;;6.08;71.68;100804.63;5098544;28;20016;-67
2022/01/31 07:58:41;;;;;;;21.08;4.22;;;;;;;6.09;71.82;100809.09;5119838;28;20070;-63
2022/01/31 08:01:07;;;;;;;23.30;4.22;;;;;;;6.19;72.64;100811.34;5113327;28;20498;-67
2022/01/31 08:03:34;;;;;;;24.17;4.03;;;;;;;6.11;71.10;100786.81;5097269;28;20024;-67
2022/01/31 08:05:59;;;;;;;22.05;4.25;;;;;;;6.10;71.23;100816.28;5100781;28;20030;-67
2022/01/31 08:08:27;;;;;;;16.67;3.60;;;;;;;6.12;71.71;100802.28;5102966;28;20024;-67
2022/01/31 08:10:53;;;;;;;17.35;3.70;;;;;;;6.17;71.21;100801.59;5102568;28;20494;-67
2022/01/31 08:13:18;;;;;;;20.40;4.10;;;;;;;6.22;70.80;100810.88;5107538;28;20028;-66
2022/01/31 08:15:47;;;;;;;21.40;3.85;;;;;;;6.28;70.66;100809.13;5108931;28;20127;-67
2022/01/31 08:18:13;;;;;;;22.83;4.07;;;;;;;6.23;71.20;100798.78;5102250;28;20020;-66
2022/01/31 08:20:38;;;;;;;22.23;4.60;;;;;;;6.16;70.31;100806.25;5106743;27;20458;-67
2022/01/31 08:23:03;;;;;;;27.50;4.45;;;;;;;6.19;70.58;100816.00;5118012;27;20367;-66
2022/01/31 08:25:29;;;;;;;24.90;4.72;;;;;;;6.22;70.27;100826.59;5110152;27;20019;-64
2022/01/31 08:28:00;;;;;;;23.05;4.68;;;;;;;6.10;71.12;100807.19;5104049;27;20024;-67
2022/01/31 08:30:36;;;;;;;24.90;5.05;;;;;;;6.08;71.33;100812.91;5104044;27;20497;-67
2022/01/31 08:33:12;;;;;;;28.70;4.78;;;;;;;6.04;71.44;100805.31;5107638;28;20073;-67
2022/01/31 08:35:50;;;;;;;25.80;4.13;;;;;;;5.94;71.79;100822.34;5103195;28;20048;-66
2022/01/31 08:38:17;;;;;;;21.30;4.93;;;;;;;5.97;72.35;100821.03;5100785;27;20399;-71
2022/01/31 08:40:43;;;;;;;23.40;4.07;;;;;;;6.04;72.40;100830.09;5115636;27;20043;-69
2022/01/31 08:43:08;;;;;;;31.90;4.38;;;;;;;6.05;72.14;100829.03;5115268;27;20027;-68
2022/01/31 08:45:36;;;;;;;22.30;4.05;;;;;;;6.01;71.90;100831.41;5106868;27;20024;-67
2022/01/31 08:48:03;;;;;;;29.23;4.70;;;;;;;6.05;71.95;100838.16;5108948;27;20024;-68
2022/01/31 08:50:28;;;;;;;23.83;5.00;;;;;;;6.06;71.54;100836.25;5106728;27;20019;-67
2022/01/31 08:52:53;;;;;;;26.13;4.68;;;;;;;6.14;71.25;100825.78;5120044;27;20374;-69
2022/01/31 08:55:20;;;;;;;27.73;4.85;;;;;;;6.12;71.21;100830.66;5109455;27;20024;-69
2022/01/31 08:57:47;;;;;;;30.15;4.75;;;;;;;6.08;71.37;100840.44;5107917;27;20040;-71
2022/01/31 09:00:13;;;;;;;24.25;3.97;;;;;;;6.06;71.72;100839.84;5105992;27;20133;-69
2022/01/31 09:02:49;;;;;;;22.17;3.97;;;;;;;6.02;71.53;100855.13;5106082;27;20144;-70
2022/01/31 09:05:14;;;;;;;29.10;4.70;;;;;;;5.99;72.09;100869.34;5105916;27;20035;-70
2022/01/31 09:07:39;;;;;;;26.83;4.40;;;;;;;6.02;71.93;100848.78;5107973;27;20024;-68
2022/01/31 09:10:05;;;;;;;28.15;5.30;;;;;;;5.99;72.41;100863.00;5106032;27;20047;-69
2022/01/31 09:12:33;;;;;;;17.00;4.20;;;;;;;5.99;73.14;100865.75;5110659;27;20542;-71
2022/01/31 09:14:59;;;;;;;19.33;4.00;;;;;;;5.90;72.47;100882.53;5107184;28;20024;-66
2022/01/31 09:17:24;;;;;;;18.92;4.20;;;;;;;5.85;72.74;100864.97;5118049;27;20488;-60
2022/01/31 09:19:49;;;;;;;23.98;3.97;;;;;;;5.76;73.25;100858.03;5106023;27;20027;-61
2022/01/31 09:22:15;;;;;;;20.45;4.07;;;;;;;5.75;73.21;100862.69;5121318;27;20034;-65
2022/01/31 09:24:41;;;;;;;23.58;4.07;;;;;;;5.78;74.01;100859.50;5109907;27;20032;-65
2022/01/31 09:27:07;;;;;;;21.52;4.10;;;;;;;5.80;73.29;100857.38;5105563;28;20042;-68
2022/01/31 09:29:32;;;;;;;20.48;4.25;;;;;;;5.95;73.76;100859.84;5101573;28;20058;-70
2022/01/31 09:31:59;;;;;;;25.63;4.32;;;;;;;5.98;72.80;100845.63;5098775;27;20028;-66
2022/01/31 09:34:25;;;;;;;23.70;4.00;;;;;;;5.91;72.75;100870.44;5097747;28;20035;-65
2022/01/31 09:36:50;;;;;;;22.10;3.95;;;;;;;5.99;73.53;100855.59;5095306;28;20495;-67
2022/01/31 09:39:15;;;;;;;26.35;4.35;;;;;;;6.03;72.42;100855.97;5096010;28;20385;-66
2022/01/31 09:41:45;;;;;;;24.33;4.28;;;;;;;6.06;72.37;100864.66;5102404;27;20111;-66
2022/01/31 09:44:18;;;;;;;21.88;4.25;;;;;;;6.02;72.52;100873.59;5104373;28;20032;-68
2022/01/31 09:49:08;;;;;;;19.27;4.35;;;;;;;5.98;72.17;100889.72;5108538;28;20164;-69
2022/01/31 09:51:34;;;;;;;26.50;4.25;;;;;;;6.00;73.36;100904.09;5107864;28;20076;-63
2022/01/31 09:54:01;;;;;;;29.02;4.85;;;;;;;5.98;72.96;100909.00;5098681;28;20023;-65
2022/01/31 09:56:46;;;;;;;30.60;4.72;;;;;;;6.06;72.97;100899.63;5104536;28;20024;-66
2022/01/31 09:59:15;;;;;;;25.77;5.32;;;;;;;6.19;73.81;100904.19;5100476;28;20047;-62
2022/01/31 10:01:47;;;;;;;32.75;5.47;;;;;;;6.13;72.93;100923.31;5104769;28;20019;-66
2022/01/31 10:04:18;;;;;;;24.38;4.93;;;;;;;6.10;73.04;100923.75;5102039;28;20042;-69
2022/01/31 10:06:47;;;;;;;31.88;5.40;;;;;;;6.06;73.80;100932.69;5104554;28;20402;-69
2022/01/31 10:09:17;;;;;;;26.50;4.40;;;;;;;6.04;72.80;100957.69;5104884;28;20067;-69
2022/01/31 10:12:12;;;;;;;31.08;4.80;;;;;;;5.97;73.55;100934.00;5110350;28;20030;-68
2022/01/31 10:17:28;;;;;;;31.65;5.95;;;;;;;5.84;73.81;100937.66;5103450;28;20042;-67
2022/01/31 10:20:00;;;;;;;34.97;5.60;;;;;;;5.82;73.29;100937.03;5102021;28;20035;-69
2022/01/31 10:22:28;;;;;;;37.95;6.43;;;;;;;5.80;73.30;100933.66;5103197;28;20058;-68
2022/01/31 10:24:55;;;;;;;35.33;5.22;;;;;;;5.83;73.92;100944.22;5101510;28;20520;-71
2022/01/31 10:27:36;;;;;;;34.25;6.00;;;;;;;5.81;72.52;100957.34;5111080;28;20028;-71
2022/01/31 10:30:12;;;;;;;39.60;6.47;;;;;;;5.84;73.00;100962.44;5092777;28;20032;-71
2022/01/31 10:32:40;;;;;;;38.85;6.82;;;;;;;5.85;71.94;100972.38;5105850;28;20364;-71
2022/01/31 10:35:15;;;;;;;42.15;6.47;;;;;;;5.88;71.17;100977.47;5093274;28;20040;-71
2022/01/31 10:37:41;;;;;;;41.72;7.40;;;;;;;5.87;71.24;100986.81;5092056;28;20032;-71
2022/01/31 10:46:05;;;;;;;35.17;6.18;;;;;;;5.86;70.48;100998.88;5110970;28;20091;-69
2022/01/31 10:53:43;;;;;;;;;;;;;;;5.93;69.53;101010.72;5109796;28;20032;-68
2022/01/31 10:56:09;;;;;;;42.63;6.20;;;;;;;5.85;69.47;100994.41;5097096;28;19925;-69
2022/01/31 10:58:34;;;;;;;34.50;6.68;;;;;;;5.88;70.47;101011.38;5106588;28;20051;-69
2022/01/31 11:01:16;;;;;;;33.65;7.07;;;;;;;5.89;70.39;101017.72;5098433;28;20099;-68
2022/01/31 11:03:41;;;;;;;34.72;5.85;;;;;;;5.85;70.78;101021.97;5099174;28;20031;-67
2022/01/31 11:06:09;;;;;;;28.40;6.18;;;;;;;5.81;72.06;101004.19;5101526;28;20595;-71
2022/01/31 11:08:34;;;;;;;28.17;5.75;;;;;;;5.77;71.68;101005.69;5102702;28;20031;-73
2022/01/31 11:11:00;;;;;;;34.65;6.45;;;;;;;5.78;71.21;100996.38;5102915;28;20030;-72
2022/01/31 11:13:26;;;;;;;28.73;5.05;;;;;;;5.81;70.91;101023.47;5099122;28;20042;-72
2022/01/31 11:15:53;;;;;;;35.72;5.97;;;;;;;5.78;71.34;101011.00;5108899;28;20023;-72
2022/01/31 11:18:21;;;;;;;34.55;6.43;;;;;;;5.85;71.75;101024.72;5105032;28;20168;-70
2022/01/31 11:20:49;;;;;;;27.75;5.85;;;;;;;5.83;71.46;101016.69;5106167;28;20543;-70
2022/01/31 11:23:15;;;;;;;39.33;6.13;;;;;;;5.85;70.68;101027.47;5093307;28;20097;-71
2022/01/31 11:25:43;;;;;;;36.47;6.07;;;;;;;5.79;71.69;101018.19;5094531;28;20122;-66
2022/01/31 11:28:10;;;;;;;35.20;6.93;;;;;;;5.84;72.19;101034.06;5107653;28;20032;-67
2022/01/31 11:30:35;;;;;;;31.80;6.07;;;;;;;5.85;71.44;101027.47;5095282;28;20032;-67
2022/01/31 11:33:02;;;;;;;38.33;7.25;;;;;;;5.81;71.77;101034.50;5106184;28;20035;-64
2022/01/31 11:35:28;;;;;;;40.17;6.25;;;;;;;5.79;72.34;101031.13;5104414;28;20066;-66
2022/01/31 11:37:54;;;;;;;36.17;6.95;;;;;;;5.81;72.31;101049.09;5106757;28;20051;-64
2022/01/31 11:40:21;;;;;;;41.05;7.03;;;;;;;5.76;72.40;101045.31;5100082;28;20110;-66
2022/01/31 11:42:48;;;;;;;40.55;6.90;;;;;;;5.73;72.94;101052.09;5092467;28;20024;-65